createdAt,value
2018-07-15T00:01:58.168Z,16.92
2018-07-15T00:04:27.253Z,16.91
2018-07-15T00:06:56.407Z,16.83
2018-07-15T00:09:25.517Z,17.03
2018-07-15T00:11:54.674Z,16.92
2018-07-15T00:14:23.852Z,16.98
2018-07-15T00:16:52.928Z,16.93
2018-07-15T00:19:22.008Z,16.87
2018-07-15T00:21:51.112Z,16.99
2018-07-15T00:24:20.124Z,16.76
2018-07-15T00:26:49.246Z,16.64
2018-07-15T00:29:18.345Z,16.59
2018-07-15T00:31:47.402Z,16.50
2018-07-15T00:34:16.496Z,16.43
2018-07-15T00:36:45.526Z,16.43
2018-07-15T00:39:14.706Z,16.56
2018-07-15T00:41:43.974Z,16.60
2018-07-15T00:44:13.804Z,16.57
2018-07-15T00:46:43.096Z,16.53
2018-07-15T00:49:12.105Z,16.75
2018-07-15T00:51:41.402Z,16.71
2018-07-15T00:54:10.406Z,16.46
2018-07-15T00:56:39.392Z,16.43
2018-07-15T00:59:08.461Z,16.47
2018-07-15T01:01:37.526Z,16.28
2018-07-15T01:04:06.834Z,16.26
2018-07-15T01:06:35.815Z,16.41
2018-07-15T01:09:07.350Z,16.50
2018-07-15T01:11:36.466Z,16.39
2018-07-15T01:14:05.564Z,16.42
2018-07-15T01:16:34.983Z,16.41
2018-07-15T01:19:04.063Z,16.34
2018-07-15T01:21:33.086Z,16.32
2018-07-15T01:24:02.174Z,16.37
2018-07-15T01:26:31.516Z,16.35
2018-07-15T01:29:00.573Z,16.44
2018-07-15T01:31:29.611Z,16.40
2018-07-15T01:33:58.642Z,16.38
2018-07-15T01:36:27.691Z,16.35
2018-07-15T01:38:56.705Z,16.33
2018-07-15T01:41:25.767Z,16.23
2018-07-15T01:43:55.817Z,16.26
2018-07-15T01:46:24.869Z,16.23
2018-07-15T01:48:54.363Z,16.07
2018-07-15T01:51:23.408Z,16.11
2018-07-15T01:53:52.963Z,16.33
2018-07-15T01:56:22.024Z,16.27
2018-07-15T01:58:51.177Z,16.16
2018-07-15T02:01:20.309Z,16.20
2018-07-15T02:03:49.343Z,16.22
2018-07-15T02:06:18.399Z,16.12
2018-07-15T02:08:47.413Z,15.97
2018-07-15T02:11:16.529Z,15.90
2018-07-15T02:13:45.598Z,15.85
2018-07-15T02:16:14.691Z,15.97
2018-07-15T02:18:43.733Z,16.04
2018-07-15T02:21:12.785Z,16.03
2018-07-15T02:23:41.822Z,15.98
2018-07-15T02:26:10.828Z,15.82
2018-07-15T02:28:40.845Z,15.87
2018-07-15T02:31:09.941Z,15.86
2018-07-15T02:33:38.944Z,15.86
2018-07-15T02:36:07.997Z,15.85
2018-07-15T02:38:36.992Z,15.92
2018-07-15T02:41:06.159Z,15.88
2018-07-15T02:43:35.207Z,15.83
2018-07-15T02:46:04.321Z,15.87
2018-07-15T02:48:34.048Z,15.91
2018-07-15T02:51:03.089Z,15.84
2018-07-15T02:53:32.191Z,15.84
2018-07-15T02:56:04.391Z,15.82
2018-07-15T02:58:33.458Z,15.87
2018-07-15T03:01:02.500Z,15.89
2018-07-15T03:03:31.539Z,15.83
2018-07-15T03:06:00.580Z,15.73
2018-07-15T03:08:29.631Z,15.79
2018-07-15T03:10:58.718Z,15.71
2018-07-15T03:13:27.865Z,15.68
2018-07-15T03:15:56.918Z,15.70
2018-07-15T03:18:26.056Z,15.66
2018-07-15T03:20:55.154Z,15.73
2018-07-15T03:23:24.217Z,15.81
2018-07-15T03:25:53.408Z,15.80
2018-07-15T03:28:22.532Z,15.70
2018-07-15T03:30:51.598Z,15.84
2018-07-15T03:33:21.098Z,15.79
2018-07-15T03:35:50.135Z,15.90
2018-07-15T03:38:19.180Z,15.93
2018-07-15T03:40:48.353Z,16.04
2018-07-15T03:43:17.540Z,16.06
2018-07-15T03:45:46.650Z,16.13
2018-07-15T03:48:15.706Z,16.25
2018-07-15T03:50:44.720Z,16.37
2018-07-15T03:53:14.375Z,16.54
2018-07-15T03:55:43.438Z,16.59
2018-07-15T03:58:12.500Z,16.63
2018-07-15T04:00:41.768Z,16.57
2018-07-15T04:03:10.767Z,16.60
2018-07-15T04:05:46.571Z,16.62
2018-07-15T04:08:15.710Z,16.82
2018-07-15T04:10:44.854Z,16.80
2018-07-15T04:13:13.966Z,16.99
2018-07-15T04:15:43.127Z,17.13
2018-07-15T04:18:12.159Z,17.34
2018-07-15T04:20:41.342Z,17.59
2018-07-15T04:23:10.554Z,17.63
2018-07-15T04:25:40.226Z,17.65
2018-07-15T04:28:09.337Z,17.79
2018-07-15T04:30:38.480Z,17.95
2018-07-15T04:33:08.166Z,18.18
2018-07-15T04:35:37.202Z,18.32
2018-07-15T04:38:06.293Z,18.38
2018-07-15T04:40:35.351Z,18.39
2018-07-15T04:43:05.170Z,18.43
2018-07-15T04:45:34.216Z,18.25
2018-07-15T04:48:03.316Z,18.32
2018-07-15T04:50:32.367Z,18.34
2018-07-15T04:53:01.438Z,18.45
2018-07-15T04:55:30.427Z,18.63
2018-07-15T04:57:59.456Z,18.87
2018-07-15T05:00:28.504Z,18.87
2018-07-15T05:02:57.611Z,18.86
2018-07-15T05:05:26.640Z,18.81
2018-07-15T05:07:55.657Z,18.68
2018-07-15T05:10:24.708Z,18.52
2018-07-15T05:12:53.821Z,18.41
2018-07-15T05:15:22.855Z,18.39
2018-07-15T05:17:51.868Z,18.36
2018-07-15T05:20:20.975Z,18.42
2018-07-15T05:22:50.099Z,18.60
2018-07-15T05:25:19.228Z,18.72
2018-07-15T05:27:48.309Z,18.59
2018-07-15T05:30:17.291Z,18.54
2018-07-15T05:32:46.331Z,18.64
2018-07-15T05:35:15.435Z,18.74
2018-07-15T05:37:44.501Z,18.93
2018-07-15T05:40:13.557Z,18.93
2018-07-15T05:42:42.541Z,18.86
2018-07-15T05:45:11.535Z,18.79
2018-07-15T05:47:40.623Z,18.77
2018-07-15T05:50:10.467Z,18.75
2018-07-15T05:52:39.493Z,18.75
2018-07-15T05:55:12.529Z,18.87
2018-07-15T05:57:41.552Z,18.83
2018-07-15T06:00:10.577Z,19.03
2018-07-15T06:02:39.692Z,19.09
2018-07-15T06:05:09.123Z,19.10
2018-07-15T06:07:38.133Z,19.09
2018-07-15T06:10:07.314Z,19.35
2018-07-15T06:12:36.439Z,19.48
2018-07-15T06:15:05.554Z,19.32
2018-07-15T06:17:34.754Z,19.33
2018-07-15T06:20:04.054Z,19.39
2018-07-15T06:22:33.463Z,19.50
2018-07-15T06:25:02.546Z,19.47
2018-07-15T06:27:31.738Z,19.50
2018-07-15T06:30:01.232Z,19.61
2018-07-15T06:32:30.382Z,19.56
2018-07-15T06:34:59.611Z,19.68
2018-07-15T06:37:28.784Z,19.55
2018-07-15T06:39:58.215Z,19.65
2018-07-15T06:42:27.273Z,19.60
2018-07-15T06:44:56.324Z,19.52
2018-07-15T06:47:25.625Z,19.40
2018-07-15T06:49:54.637Z,19.23
2018-07-15T06:52:24.473Z,19.39
2018-07-15T06:54:53.527Z,19.59
2018-07-15T06:57:22.584Z,19.63
2018-07-15T06:59:51.785Z,19.55
2018-07-15T07:02:21.099Z,19.65
2018-07-15T07:04:50.402Z,19.91
2018-07-15T07:07:19.658Z,19.90
2018-07-15T07:09:48.732Z,20.05
2018-07-15T07:12:17.772Z,20.09
2018-07-15T07:14:46.818Z,20.00
2018-07-15T07:17:15.919Z,19.88
2018-07-15T07:19:45.090Z,19.85
2018-07-15T07:22:14.194Z,20.00
2018-07-15T07:24:43.253Z,20.22
2018-07-15T07:27:12.563Z,20.12
2018-07-15T07:29:41.635Z,20.09
2018-07-15T07:32:10.699Z,19.89
2018-07-15T07:34:39.766Z,20.04
2018-07-15T07:37:08.849Z,20.21
2018-07-15T07:39:37.966Z,20.33
2018-07-15T07:42:07.024Z,20.23
2018-07-15T07:44:36.041Z,20.18
2018-07-15T07:47:05.478Z,20.23
2018-07-15T07:49:34.378Z,20.31
2018-07-15T07:52:03.559Z,20.30
2018-07-15T07:54:32.562Z,20.38
2018-07-15T07:57:01.591Z,20.49
2018-07-15T07:59:30.665Z,20.67
2018-07-15T08:01:59.723Z,20.66
2018-07-15T08:04:28.781Z,20.66
2018-07-15T08:06:57.904Z,20.56
2018-07-15T08:09:27.070Z,20.64
2018-07-15T08:11:56.273Z,20.77
2018-07-15T08:14:25.424Z,20.78
2018-07-15T08:16:54.787Z,20.78
2018-07-15T08:19:23.984Z,20.78
2018-07-15T08:21:53.158Z,20.86
2018-07-15T08:24:22.290Z,20.75
2018-07-15T08:26:51.313Z,20.89
2018-07-15T08:29:20.342Z,21.03
2018-07-15T08:31:49.647Z,21.05
2018-07-15T08:34:18.665Z,21.20
2018-07-15T08:36:47.666Z,21.12
2018-07-15T08:39:17.369Z,21.33
2018-07-15T08:41:46.655Z,21.55
2018-07-15T08:44:15.729Z,21.44
2018-07-15T08:46:44.797Z,21.09
2018-07-15T08:49:14.017Z,21.11
2018-07-15T08:51:43.137Z,20.96
2018-07-15T08:54:12.264Z,21.31
2018-07-15T08:56:41.452Z,21.17
2018-07-15T08:59:10.502Z,21.33
2018-07-15T09:01:40.446Z,21.41
2018-07-15T09:04:09.573Z,21.35
2018-07-15T09:06:38.688Z,21.43
2018-07-15T09:18:57.763Z,21.52
2018-07-15T09:21:26.781Z,21.64
2018-07-15T09:23:55.877Z,21.68
2018-07-15T09:26:25.041Z,21.83
2018-07-15T09:28:54.129Z,21.99
2018-07-15T09:31:23.233Z,21.87
2018-07-15T09:33:52.391Z,21.82
2018-07-15T09:36:21.741Z,21.83
2018-07-15T09:38:51.029Z,21.79
2018-07-15T09:41:20.984Z,21.42
2018-07-15T09:43:50.318Z,21.57
2018-07-15T09:46:19.548Z,21.76
2018-07-15T09:48:49.086Z,21.85
2018-07-15T09:51:18.331Z,22.09
2018-07-15T09:53:47.609Z,22.42
2018-07-15T09:56:16.737Z,22.40
2018-07-15T09:58:45.985Z,22.46
2018-07-15T10:01:15.242Z,22.40
2018-07-15T10:03:44.373Z,22.50
2018-07-15T10:06:13.396Z,22.61
2018-07-15T10:08:42.388Z,22.69
2018-07-15T10:11:11.388Z,22.66
2018-07-15T10:13:41.331Z,22.66
2018-07-15T10:16:10.446Z,22.57
2018-07-15T10:18:39.575Z,22.33
2018-07-15T10:21:08.613Z,22.22
2018-07-15T10:23:38.084Z,22.37
2018-07-15T10:26:07.152Z,22.60
2018-07-15T10:28:36.162Z,22.61
2018-07-15T10:31:05.321Z,22.69
2018-07-15T10:33:34.419Z,22.53
2018-07-15T10:36:03.546Z,22.76
2018-07-15T10:38:33.295Z,22.90
2018-07-15T10:41:02.956Z,22.88
2018-07-15T10:43:32.158Z,22.71
2018-07-15T10:46:01.312Z,22.64
2018-07-15T10:48:30.610Z,22.59
2018-07-15T10:50:59.658Z,22.62
2018-07-15T10:53:28.721Z,22.60
2018-07-15T10:55:57.775Z,22.75
2018-07-15T10:58:26.930Z,22.82
2018-07-15T11:00:55.957Z,22.88
2018-07-15T11:03:25.038Z,22.68
2018-07-15T11:05:54.124Z,22.53
2018-07-15T11:08:23.237Z,22.57
2018-07-15T11:10:52.817Z,22.58
2018-07-15T11:13:22.314Z,22.77
2018-07-15T11:15:51.436Z,22.93
2018-07-15T11:18:20.481Z,23.03
2018-07-15T11:20:49.860Z,22.99
2018-07-15T11:23:19.018Z,22.98
2018-07-15T11:25:48.044Z,23.10
2018-07-15T11:28:17.223Z,23.22
2018-07-15T11:30:46.338Z,23.37
2018-07-15T11:33:15.447Z,23.58
2018-07-15T11:35:44.524Z,23.49
2018-07-15T11:38:13.944Z,23.65
2018-07-15T11:40:43.160Z,23.70
2018-07-15T11:43:12.284Z,23.62
2018-07-15T11:45:42.072Z,23.43
2018-07-15T11:48:11.376Z,23.54
2018-07-15T11:50:40.417Z,23.71
2018-07-15T11:53:09.466Z,23.86
2018-07-15T11:55:38.767Z,24.02
2018-07-15T11:58:07.841Z,24.15
2018-07-15T12:00:37.034Z,24.10
2018-07-15T12:03:06.100Z,24.11
2018-07-15T12:05:35.230Z,23.91
2018-07-15T12:08:04.280Z,24.01
2018-07-15T12:10:33.428Z,23.97
2018-07-15T12:13:02.478Z,24.14
2018-07-15T12:15:31.531Z,24.20
2018-07-15T12:18:00.659Z,24.02
2018-07-15T12:20:29.763Z,23.94
2018-07-15T12:22:58.817Z,23.88
2018-07-15T12:25:27.801Z,23.81
2018-07-15T12:27:56.860Z,23.91
2018-07-15T12:30:25.892Z,24.03
2018-07-15T12:32:55.060Z,24.21
2018-07-15T12:35:24.131Z,24.53
2018-07-15T12:37:53.265Z,24.77
2018-07-15T12:40:22.358Z,25.02
2018-07-15T12:42:51.640Z,24.71
2018-07-15T12:45:20.796Z,24.23
2018-07-15T12:47:49.837Z,23.91
2018-07-15T12:50:18.943Z,23.50
2018-07-15T12:52:47.973Z,23.58
2018-07-15T12:55:17.155Z,23.91
2018-07-15T12:57:46.493Z,24.07
2018-07-15T13:00:15.678Z,24.02
2018-07-15T13:02:44.702Z,23.96
2018-07-15T13:05:13.740Z,24.05
2018-07-15T13:07:43.176Z,24.00
2018-07-15T13:10:12.198Z,24.04
2018-07-15T13:12:41.296Z,23.93
2018-07-15T13:15:10.460Z,23.88
2018-07-15T13:17:39.524Z,24.04
2018-07-15T13:20:09.574Z,24.18
2018-07-15T13:22:39.039Z,24.34
2018-07-15T13:25:08.325Z,24.53
2018-07-15T13:27:38.041Z,24.76
2018-07-15T13:30:07.170Z,24.80
2018-07-15T13:32:36.411Z,24.74
2018-07-15T13:35:05.803Z,24.71
2018-07-15T13:37:35.346Z,24.67
2018-07-15T13:40:04.407Z,24.72
2018-07-15T13:42:33.455Z,24.76
2018-07-15T13:45:02.483Z,24.71
2018-07-15T13:47:31.594Z,24.65
2018-07-15T13:50:00.640Z,24.62
2018-07-15T13:52:33.289Z,24.60
2018-07-15T13:55:03.041Z,24.59
2018-07-15T13:57:32.145Z,24.67
2018-07-15T14:00:01.230Z,24.89
2018-07-15T14:02:30.882Z,24.94
2018-07-15T14:05:00.002Z,25.01
2018-07-15T14:07:29.205Z,25.05
2018-07-15T14:09:58.270Z,25.25
2018-07-15T14:12:28.483Z,25.54
2018-07-15T14:14:57.638Z,25.64
2018-07-15T14:17:26.814Z,25.74
2018-07-15T14:19:55.861Z,25.80
2018-07-15T14:22:25.034Z,25.89
2018-07-15T14:24:54.104Z,25.66
2018-07-15T14:27:23.189Z,25.51
2018-07-15T14:29:52.355Z,25.63
2018-07-15T14:32:21.460Z,25.71
2018-07-15T14:34:50.600Z,25.53
2018-07-15T14:37:19.868Z,25.43
2018-07-15T14:39:48.886Z,25.45
2018-07-15T14:42:18.477Z,25.45
2018-07-15T14:44:47.470Z,25.46
2018-07-15T14:47:16.602Z,25.31
2018-07-15T14:49:45.746Z,25.47
2018-07-15T14:52:15.060Z,25.49
2018-07-15T14:54:44.246Z,25.61
2018-07-15T14:57:13.294Z,25.68
2018-07-15T14:59:42.310Z,25.65
2018-07-15T15:02:11.352Z,25.61
2018-07-15T15:04:40.447Z,25.65
2018-07-15T15:07:09.635Z,25.76
2018-07-15T15:09:38.706Z,25.93
2018-07-15T15:12:08.073Z,25.93
2018-07-15T15:14:37.127Z,25.97
2018-07-15T15:17:07.426Z,25.96
2018-07-15T15:19:36.524Z,26.14
2018-07-15T15:22:05.571Z,26.29
2018-07-15T15:24:35.019Z,26.52
2018-07-15T15:27:04.124Z,26.74
2018-07-15T15:29:33.265Z,26.80
2018-07-15T15:32:02.643Z,27.12
2018-07-15T15:34:31.921Z,27.35
2018-07-15T15:37:01.021Z,26.96
2018-07-15T15:39:30.282Z,26.87
2018-07-15T15:41:59.567Z,27.16
2018-07-15T15:44:28.628Z,27.41
2018-07-15T15:46:57.724Z,27.28
2018-07-15T15:49:26.814Z,26.87
2018-07-15T15:51:56.781Z,27.51
2018-07-15T15:54:33.249Z,28.29
2018-07-15T15:57:02.420Z,29.85
2018-07-15T15:59:31.458Z,30.89
2018-07-15T16:02:00.850Z,31.40
2018-07-15T16:04:30.047Z,32.20
2018-07-15T16:07:02.261Z,32.95
2018-07-15T16:09:31.240Z,33.62
2018-07-15T16:12:00.573Z,34.40
2018-07-15T16:14:29.744Z,35.58
2018-07-15T16:16:59.009Z,35.49
2018-07-15T16:19:31.257Z,35.15
2018-07-15T16:22:01.052Z,34.56
2018-07-15T16:24:30.168Z,34.09
2018-07-15T16:26:59.326Z,34.90
2018-07-15T16:29:28.428Z,35.24
2018-07-15T16:31:57.663Z,33.31
2018-07-15T16:34:27.013Z,33.29
2018-07-15T16:36:56.425Z,33.18
2018-07-15T16:39:25.465Z,32.18
2018-07-15T16:41:58.454Z,30.73
2018-07-15T16:44:34.384Z,29.87
2018-07-15T16:47:03.677Z,28.61
2018-07-15T16:49:32.809Z,28.06
2018-07-15T16:52:01.882Z,28.81
2018-07-15T16:54:31.247Z,30.61
2018-07-15T16:57:00.361Z,31.88
2018-07-15T16:59:29.408Z,32.25
2018-07-15T17:01:58.532Z,32.89
2018-07-15T17:04:27.641Z,32.56
2018-07-15T17:06:56.721Z,30.88
2018-07-15T17:09:25.825Z,29.72
2018-07-15T17:11:54.920Z,28.68
2018-07-15T17:14:24.018Z,27.97
2018-07-15T17:16:53.277Z,27.16
2018-07-15T17:19:22.501Z,26.90
2018-07-15T17:21:51.630Z,26.76
2018-07-15T17:24:20.938Z,26.67
2018-07-15T17:26:49.972Z,26.31
2018-07-15T17:29:19.276Z,26.19
2018-07-15T17:31:48.396Z,26.05
2018-07-15T17:34:17.572Z,25.96
2018-07-15T17:36:46.900Z,25.81
2018-07-15T17:39:16.054Z,25.83
2018-07-15T17:41:45.272Z,25.57
2018-07-15T17:44:14.854Z,25.57
2018-07-15T17:46:44.380Z,25.52
2018-07-15T17:49:13.833Z,25.45
2018-07-15T17:51:43.477Z,25.32
2018-07-15T17:54:12.672Z,25.29
2018-07-15T17:56:41.933Z,25.17
2018-07-15T17:59:12.062Z,25.18
2018-07-15T18:01:41.150Z,25.23
2018-07-15T18:04:10.472Z,24.97
2018-07-15T18:06:39.582Z,25.09
2018-07-15T18:09:08.724Z,25.01
2018-07-15T18:11:37.826Z,24.85
2018-07-15T18:14:07.096Z,24.84
2018-07-15T18:16:36.156Z,24.89
2018-07-15T18:19:05.470Z,24.88
2018-07-15T18:21:34.553Z,24.74
2018-07-15T18:24:03.753Z,24.50
2018-07-15T18:26:32.907Z,24.47
2018-07-15T18:29:03.439Z,24.64
2018-07-15T18:31:33.071Z,24.65
2018-07-15T18:34:02.324Z,24.57
2018-07-15T18:36:31.376Z,24.57
2018-07-15T18:39:00.612Z,24.45
2018-07-15T18:41:29.782Z,24.48
2018-07-15T18:43:58.948Z,24.42
2018-07-15T18:46:28.010Z,24.38
2018-07-15T18:48:57.069Z,24.44
2018-07-15T18:51:26.226Z,24.41
2018-07-15T18:53:55.308Z,24.43
2018-07-15T18:56:24.423Z,24.28
2018-07-15T18:58:53.522Z,24.26
2018-07-15T19:01:22.668Z,24.08
2018-07-15T19:03:51.919Z,24.17
2018-07-15T19:06:21.035Z,24.03
2018-07-15T19:08:50.262Z,23.81
2018-07-15T19:11:19.346Z,23.77
2018-07-15T19:13:48.507Z,23.90
2018-07-15T19:16:17.594Z,23.69
2018-07-15T19:18:46.775Z,23.66
2018-07-15T19:21:15.881Z,23.56
2018-07-15T19:23:45.912Z,23.57
2018-07-15T19:26:14.964Z,23.54
2018-07-15T19:28:44.123Z,23.52
2018-07-15T19:31:13.189Z,23.45
2018-07-15T19:33:42.739Z,23.35
2018-07-15T19:36:12.367Z,23.26
2018-07-15T19:38:41.464Z,23.19
2018-07-15T19:41:11.017Z,23.20
2018-07-15T19:43:40.356Z,23.13
2018-07-15T19:46:09.460Z,23.13
2018-07-15T19:48:38.662Z,23.06
2018-07-15T19:51:08.032Z,23.15
2018-07-15T19:53:37.150Z,23.08
2018-07-15T19:56:06.487Z,23.05
2018-07-15T19:58:35.631Z,22.94
2018-07-15T20:01:04.882Z,22.94
2018-07-15T20:03:33.945Z,22.84
2018-07-15T20:06:03.047Z,22.86
2018-07-15T20:08:32.235Z,22.83
2018-07-15T20:11:01.336Z,22.87
2018-07-15T20:13:31.540Z,22.81
2018-07-15T20:16:00.797Z,22.67
2018-07-15T20:18:29.876Z,22.66
2018-07-15T20:20:59.090Z,22.45
2018-07-15T20:23:28.522Z,22.36
2018-07-15T20:25:57.544Z,22.34
2018-07-15T20:28:26.638Z,22.47
2018-07-15T20:30:55.820Z,22.48
2018-07-15T20:33:25.003Z,22.45
2018-07-15T20:35:54.152Z,22.29
2018-07-15T20:38:23.335Z,22.25
2018-07-15T20:40:52.448Z,22.29
2018-07-15T20:43:21.538Z,22.06
2018-07-15T20:45:50.619Z,21.97
2018-07-15T20:48:19.943Z,21.80
2018-07-15T20:50:49.498Z,21.82
2018-07-15T20:53:18.574Z,21.84
2018-07-15T20:55:47.633Z,21.75
2018-07-15T20:58:16.685Z,21.78
2018-07-15T21:00:45.913Z,21.73
2018-07-15T21:03:15.059Z,21.72
2018-07-15T21:05:44.201Z,21.73
2018-07-15T21:08:13.272Z,21.67
2018-07-15T21:23:43.314Z,21.13
2018-07-15T21:26:12.630Z,20.93
2018-07-15T21:28:41.847Z,21.12
2018-07-15T21:31:11.027Z,21.08
2018-07-15T21:33:40.089Z,20.86
2018-07-15T21:36:09.172Z,20.88
2018-07-15T21:38:38.242Z,20.88
2018-07-15T21:41:07.502Z,20.73
2018-07-15T21:43:36.842Z,20.79
2018-07-15T21:46:06.028Z,20.84
2018-07-15T21:48:35.144Z,20.76
2018-07-15T21:51:04.836Z,20.69
2018-07-15T21:53:34.073Z,20.77
2018-07-15T21:56:03.541Z,20.75
2018-07-15T21:58:32.677Z,20.83
2018-07-15T22:01:01.750Z,20.85
2018-07-15T22:03:30.845Z,20.78
2018-07-15T22:05:59.949Z,20.65
2018-07-15T22:08:45.123Z,20.62
2018-07-15T22:11:14.436Z,20.59
2018-07-15T22:13:43.567Z,20.59
2018-07-15T22:16:12.718Z,20.48
2018-07-15T22:18:41.793Z,20.45
2018-07-15T22:21:11.097Z,20.37
2018-07-15T22:23:40.194Z,20.29
2018-07-15T22:26:09.310Z,20.26
2018-07-15T22:28:38.526Z,20.26
2018-07-15T22:31:07.613Z,20.08
2018-07-15T22:33:36.661Z,20.00
2018-07-15T22:36:05.839Z,20.13
2018-07-15T22:38:34.997Z,20.12
2018-07-15T22:41:04.013Z,20.23
2018-07-15T22:43:33.095Z,20.21
2018-07-15T22:46:02.169Z,20.13
2018-07-15T22:48:31.247Z,19.99
2018-07-15T22:51:00.365Z,20.07
2018-07-15T22:53:30.065Z,19.90
2018-07-15T22:55:59.149Z,19.75
2018-07-15T22:58:28.245Z,19.69
2018-07-15T23:00:57.337Z,19.74
2018-07-15T23:03:26.437Z,19.73
2018-07-15T23:06:07.126Z,19.76
2018-07-15T23:08:36.315Z,19.79
2018-07-15T23:11:05.383Z,19.71
2018-07-15T23:13:34.401Z,19.59
2018-07-15T23:16:03.633Z,19.63
2018-07-15T23:18:32.696Z,19.53
2018-07-15T23:21:02.042Z,19.46
2018-07-15T23:23:31.108Z,19.47
2018-07-15T23:26:00.177Z,19.50
2018-07-15T23:28:29.274Z,19.54
2018-07-15T23:30:59.131Z,19.30
2018-07-15T23:33:28.109Z,19.26
2018-07-15T23:35:57.176Z,19.44
2018-07-15T23:38:26.237Z,19.16
2018-07-15T23:40:56.046Z,19.41
2018-07-15T23:43:25.111Z,19.09
2018-07-15T23:45:54.197Z,18.97
2018-07-15T23:48:23.335Z,19.10
2018-07-15T23:50:52.395Z,18.99
2018-07-15T23:53:21.466Z,19.11
2018-07-15T23:55:50.486Z,19.10
2018-07-15T23:58:19.576Z,19.17
